createdAt,value
2023-02-02T06:18:38.693Z,15.38
2023-02-02T06:28:38.518Z,12.40
2023-02-02T06:38:38.585Z,13.23
2023-02-02T06:48:38.644Z,14.55
2023-02-02T06:58:38.680Z,13.61
2023-02-02T07:08:38.689Z,14.93
2023-02-02T07:18:38.767Z,12.83
2023-02-02T07:28:38.765Z,17.28
2023-02-02T07:38:38.770Z,16.37
2023-02-02T07:48:38.524Z,13.85
2023-02-02T07:58:38.807Z,11.39
2023-02-02T08:08:38.730Z,11.84
2023-02-02T08:18:38.701Z,11.05
2023-02-02T08:28:38.736Z,10.45
2023-02-02T08:38:38.745Z,10.74
2023-02-02T08:48:39.002Z,10.93
2023-02-02T08:58:39.052Z,11.83
2023-02-02T09:08:39.337Z,11.67
2023-02-02T09:18:39.110Z,10.42
2023-02-02T09:28:39.419Z,11.02
2023-02-02T09:38:39.135Z,10.91
2023-02-02T09:48:39.064Z,9.88
2023-02-02T09:58:39.054Z,12.35
2023-02-02T10:08:39.106Z,12.17
2023-02-02T10:18:39.263Z,11.92
2023-02-02T10:28:39.134Z,9.32
2023-02-02T10:38:39.231Z,11.53
2023-02-02T10:48:39.139Z,12.72
2023-02-02T10:58:39.222Z,14.25
2023-02-02T11:08:38.907Z,14.07
2023-02-02T11:18:38.952Z,14.90
2023-02-02T11:28:38.937Z,18.94
2023-02-02T11:38:39.225Z,20.69
2023-02-02T11:48:39.153Z,18.94
2023-02-02T11:58:39.092Z,13.14
2023-02-02T12:08:38.965Z,15.19
2023-02-02T12:18:39.124Z,12.47
2023-02-02T12:28:39.102Z,16.39
2023-02-02T12:38:38.936Z,17.50
2023-02-02T12:48:39.128Z,13.77
2023-02-02T12:58:38.967Z,10.59
2023-02-02T13:08:38.967Z,8.79
2023-02-02T13:18:39.079Z,11.94
2023-02-02T13:28:39.049Z,15.16
2023-02-02T13:38:38.938Z,14.08
2023-02-02T13:48:39.044Z,14.05
2023-02-02T13:58:39.065Z,9.24
2023-02-02T14:08:39.067Z,13.43
2023-02-02T14:18:39.118Z,9.80
2023-02-02T14:28:39.144Z,9.80
2023-02-02T14:38:39.203Z,10.06
2023-02-02T14:48:39.184Z,8.26
2023-02-02T14:58:39.358Z,8.15
2023-02-02T15:08:39.296Z,8.89
2023-02-02T15:18:39.095Z,9.05
2023-02-02T15:28:39.194Z,7.65
2023-02-02T15:38:39.194Z,5.25
2023-02-02T15:48:39.346Z,6.13
2023-02-02T15:58:39.164Z,6.05
2023-02-02T16:08:39.294Z,6.22
2023-02-02T16:18:39.165Z,5.17
2023-02-02T16:28:39.277Z,4.22
2023-02-02T16:38:39.341Z,5.82
2023-02-02T16:48:39.181Z,5.29
2023-02-02T16:58:39.332Z,8.91
2023-02-02T17:08:39.321Z,11.14
2023-02-02T17:18:39.376Z,9.98
2023-02-02T17:28:39.324Z,12.49
2023-02-02T17:38:39.354Z,12.37
2023-02-02T17:48:39.481Z,9.58
2023-02-02T17:58:39.336Z,11.67
2023-02-02T18:08:39.367Z,12.22
2023-02-02T18:18:39.351Z,11.02
2023-02-02T18:28:39.526Z,6.97
2023-02-02T18:38:39.775Z,7.35
2023-02-02T18:48:39.820Z,8.12
2023-02-02T18:58:39.830Z,10.08
2023-02-02T19:08:39.960Z,11.26
2023-02-02T19:18:39.925Z,9.76
